To NAV CANADA Home Page Login to a new session Search on AWWS site Disclaimer Vers la page française équivalente Tips FAQ What's new on the site To the Forecasts and Observations / NOTAM section To "File a Flight Plan" website Publications and other links Update of the User's profile FIC Telephone Numbers My Weather Data Folder Route Weather Data Regional Weather Data Local Weather Data To the Forecasts and Observations / NOTAM section
Request Generated 10/21/2018 at 06:38:57 UTC . Weather information available at that time is displayed.

METAR/TAF

ST. CATHARINES/NIAGARA DISTRICT/ON    

LWIS CYSN 210600Z AUTO 34015G22KT 05/M02 A2990=
LWIS CYSN 210500Z AUTO 35011G20KT 06/M02 A2986=
LWIS CYSN 210400Z AUTO 35015G25KT 06/M02 A2983=

*** REMARK        : Forecast period has ended; this was the last TAF issued
*** REMARQUE : La période de prévision est échue; ceci était le dernier TAF qui a été émis
TAF CYSN 201938Z 2020/2101 27008KT P6SM BKN030 BKN050 TEMPO 2020/2023
P6SM -SHRA
BECMG 2023/2101 36010G20KT
RMK NXT FCST WILL BE ISSUED AT 211245Z=
Your time UTC time
Weather data provided by Environment Canada and NAV CANADA